Time;durP1;ratioP1;P1;durP2;ratioP2;P2;SDS_P1;SDS_P2;PMS_P1;PMS_P2;Temp;Humidity;BMP_temperature;BMP_pressure;BME280_temperature;BME280_humidity;BME280_pressure;Samples;Min_cycle;Max_cycle;Signal;HPM_P1;HPM_P2
2022/05/10 00:03:01;;;;;;;10.43;9.63;;;16.70;99.90;;;;;;10478993;28;20203;-83
2022/05/10 00:08:06;;;;;;;10.83;10.13;;;16.60;99.90;;;;;;10482934;28;20726;-83
2022/05/10 00:13:10;;;;;;;11.17;10.37;;;16.60;99.90;;;;;;10465771;28;20243;-84
2022/05/10 00:18:14;;;;;;;11.50;10.70;;;16.50;99.90;;;;;;10492769;28;20217;-84
2022/05/10 00:23:17;;;;;;;12.10;11.00;;;16.50;99.90;;;;;;10503732;28;20224;-85
2022/05/10 00:28:20;;;;;;;10.87;10.03;;;16.40;99.90;;;;;;10484095;28;20217;-84
2022/05/10 00:33:26;;;;;;;12.33;10.90;;;16.40;99.90;;;;;;10493723;28;20196;-83
2022/05/10 00:38:33;;;;;;;11.17;10.37;;;16.40;99.90;;;;;;10481804;28;20252;-85
2022/05/10 00:43:41;;;;;;;11.97;11.07;;;16.30;99.90;;;;;;10477159;28;20193;-84
2022/05/10 00:48:48;;;;;;;11.40;10.60;;;16.30;99.90;;;;;;10492008;28;20224;-85
2022/05/10 00:53:57;;;;;;;12.37;11.47;;;16.30;99.90;;;;;;10491589;28;20207;-84
2022/05/10 00:59:08;;;;;;;10.70;9.90;;;16.20;99.90;;;;;;10485066;28;20213;-84
2022/05/10 01:04:18;;;;;;;12.90;11.80;;;16.10;99.90;;;;;;10491934;28;20207;-83
2022/05/10 01:09:30;;;;;;;12.43;11.43;;;16.10;99.90;;;;;;10488148;28;20240;-84
2022/05/10 01:14:44;;;;;;;11.67;10.67;;;16.10;99.90;;;;;;10491343;28;20676;-84
2022/05/10 01:19:48;;;;;;;11.30;10.40;;;16.10;99.90;;;;;;10505068;28;20211;-83
2022/05/10 01:25:04;;;;;;;14.10;12.87;;;16.00;99.90;;;;;;10472069;28;20209;-84
2022/05/10 01:30:11;;;;;;;12.70;11.70;;;16.00;99.90;;;;;;10494418;28;20239;-83
2022/05/10 01:35:17;;;;;;;12.60;11.60;;;15.90;99.90;;;;;;10501768;28;20638;-84
2022/05/10 01:40:25;;;;;;;14.10;12.90;;;15.80;99.90;;;;;;10491832;28;20223;-83
2022/05/10 01:45:36;;;;;;;11.90;10.97;;;15.80;99.90;;;;;;10486078;28;20204;-83
2022/05/10 01:50:43;;;;;;;12.97;11.87;;;15.80;99.90;;;;;;10505191;28;20247;-83
2022/05/10 01:55:51;;;;;;;12.70;11.77;;;15.70;99.90;;;;;;10491247;28;20197;-83
2022/05/10 02:00:58;;;;;;;12.30;11.23;;;15.70;99.90;;;;;;10472438;28;20216;-84
2022/05/10 02:06:11;;;;;;;12.17;11.07;;;15.70;99.90;;;;;;10496457;28;20201;-84
2022/05/10 02:11:15;;;;;;;12.40;11.50;;;15.70;99.90;;;;;;10485923;28;20225;-84
2022/05/10 02:16:25;;;;;;;11.93;10.93;;;15.60;99.90;;;;;;10470158;28;20296;-85
2022/05/10 02:21:31;;;;;;;12.07;10.90;;;15.60;99.90;;;;;;10476649;28;20224;-83
2022/05/10 02:26:39;;;;;;;12.30;11.30;;;15.60;99.90;;;;;;10451755;28;20213;-83
2022/05/10 02:37:06;;;;;;;13.57;12.57;;;15.50;99.90;;;;;;10485492;28;20665;-84
2022/05/10 02:42:10;;;;;;;13.37;12.17;;;15.50;99.90;;;;;;10455513;28;20228;-84
2022/05/10 02:47:14;;;;;;;13.73;12.20;;;15.50;99.90;;;;;;10488941;28;20747;-84
2022/05/10 02:52:16;;;;;;;12.90;11.70;;;15.40;99.90;;;;;;10473030;28;20228;-84
2022/05/10 02:57:18;;;;;;;12.07;11.17;;;15.40;99.90;;;;;;10453936;28;20656;-83
2022/05/10 03:02:25;;;;;;;12.77;11.67;;;15.40;99.90;;;;;;10505078;28;20296;-84
2022/05/10 03:07:28;;;;;;;11.47;10.67;;;15.30;99.90;;;;;;10488466;28;20716;-84
2022/05/10 03:12:31;;;;;;;13.30;12.20;;;15.30;99.90;;;;;;10480432;28;20210;-83
2022/05/10 03:17:34;;;;;;;11.83;10.93;;;15.30;99.90;;;;;;10488632;28;20686;-83
2022/05/10 03:22:36;;;;;;;14.03;12.87;;;15.20;99.90;;;;;;10466010;28;20295;-83
2022/05/10 03:27:39;;;;;;;13.00;11.90;;;15.20;99.90;;;;;;10485796;28;20278;-84
2022/05/10 03:32:43;;;;;;;13.07;12.00;;;15.20;99.90;;;;;;10489509;28;20300;-82
2022/05/10 03:37:45;;;;;;;12.60;11.70;;;15.20;99.90;;;;;;10477788;28;20196;-84
2022/05/10 03:42:49;;;;;;;14.07;12.97;;;15.10;99.90;;;;;;10503991;28;20204;-85
2022/05/10 03:47:53;;;;;;;12.43;11.30;;;15.10;99.90;;;;;;10495945;28;20707;-85
2022/05/10 03:52:56;;;;;;;16.00;14.70;;;15.10;99.90;;;;;;10499948;28;20543;-84
2022/05/10 03:57:58;;;;;;;13.77;12.67;;;15.10;99.90;;;;;;10490363;28;20250;-83
2022/05/10 04:03:01;;;;;;;14.30;13.20;;;15.10;99.90;;;;;;10492691;28;20201;-83
2022/05/10 04:08:04;;;;;;;15.37;14.07;;;15.00;99.90;;;;;;10482052;28;20235;-85
2022/05/10 04:13:07;;;;;;;14.57;13.33;;;15.00;99.90;;;;;;10497868;28;20197;-84
2022/05/10 04:18:10;;;;;;;13.87;12.77;;;15.00;99.90;;;;;;10495531;28;20741;-85
2022/05/10 04:23:12;;;;;;;14.60;13.57;;;15.00;99.90;;;;;;10487933;28;20226;-84
2022/05/10 04:28:15;;;;;;;13.47;12.47;;;15.00;99.90;;;;;;10487774;28;20467;-85
2022/05/10 04:33:18;;;;;;;14.93;13.77;;;15.00;99.90;;;;;;10501010;28;20201;-85
2022/05/10 04:38:20;;;;;;;15.70;14.40;;;15.10;99.90;;;;;;10470695;28;20246;-85
2022/05/10 04:43:23;;;;;;;15.70;14.30;;;15.10;99.90;;;;;;10483218;28;20556;-85
2022/05/10 04:48:27;;;;;;;14.57;13.47;;;15.10;99.90;;;;;;10508415;28;20225;-84
2022/05/10 04:53:30;;;;;;;13.97;12.87;;;15.20;99.90;;;;;;10488477;28;20511;-85
2022/05/10 04:58:33;;;;;;;15.77;14.10;;;15.20;99.90;;;;;;10490624;28;20680;-85
2022/05/10 05:03:37;;;;;;;15.70;14.40;;;15.30;99.90;;;;;;10492993;28;20681;-84
2022/05/10 05:08:39;;;;;;;14.13;12.93;;;15.40;99.90;;;;;;10502116;28;20664;-86
2022/05/10 05:13:41;;;;;;;14.83;13.70;;;15.50;99.90;;;;;;10487938;28;20262;-85
2022/05/10 05:18:45;;;;;;;14.57;13.47;;;15.60;99.90;;;;;;10490157;28;20283;-86
2022/05/10 05:23:47;;;;;;;14.80;13.50;;;15.60;99.90;;;;;;10495471;28;20228;-86
2022/05/10 05:28:49;;;;;;;14.23;13.13;;;15.70;99.90;;;;;;10487140;28;20220;-84
2022/05/10 05:33:54;;;;;;;15.40;14.20;;;15.80;99.90;;;;;;10485070;28;20201;-85
2022/05/10 05:38:56;;;;;;;14.73;13.47;;;16.00;99.90;;;;;;10521682;22;20215;-82
2022/05/10 05:43:59;;;;;;;15.47;14.17;;;16.10;99.90;;;;;;10526516;28;20228;-82
2022/05/10 05:49:02;;;;;;;16.07;14.77;;;16.30;99.90;;;;;;10524963;28;20227;-85
2022/05/10 05:54:08;;;;;;;15.80;14.50;;;16.40;99.90;;;;;;10526052;28;20310;-82
2022/05/10 05:59:10;;;;;;;16.13;14.70;;;16.50;99.90;;;;;;10540709;28;20687;-82
2022/05/10 06:04:14;;;;;;;15.67;14.37;;;16.70;99.90;;;;;;10521513;28;20288;-83
2022/05/10 06:09:19;;;;;;;14.60;13.40;;;16.80;99.90;;;;;;10507713;28;20294;-83
2022/05/10 06:14:22;;;;;;;15.50;14.17;;;16.90;99.90;;;;;;10544578;28;20740;-81
2022/05/10 06:19:27;;;;;;;15.00;13.80;;;17.00;99.90;;;;;;10541364;28;20219;-82
2022/05/10 06:24:30;;;;;;;14.80;13.60;;;17.10;99.90;;;;;;10537065;28;20203;-83
2022/05/10 06:29:32;;;;;;;16.60;15.10;;;17.30;99.90;;;;;;10536015;28;20208;-83
2022/05/10 06:34:35;;;;;;;21.90;19.60;;;17.50;99.90;;;;;;10518881;28;20204;-82
2022/05/10 06:39:37;;;;;;;15.87;14.57;;;17.60;99.90;;;;;;10515002;28;20246;-81
2022/05/10 06:44:39;;;;;;;16.90;15.37;;;17.80;99.90;;;;;;10519731;28;20551;-81
2022/05/10 06:49:43;;;;;;;14.97;13.83;;;17.90;99.90;;;;;;10523433;28;20262;-82
2022/05/10 06:54:46;;;;;;;15.67;14.40;;;18.10;99.90;;;;;;10512894;28;20192;-81
2022/05/10 06:59:48;;;;;;;15.57;14.10;;;18.30;99.90;;;;;;10519730;28;20273;-82
2022/05/10 07:04:51;;;;;;;15.77;14.40;;;18.40;99.90;;;;;;10542696;28;20555;-82
2022/05/10 07:09:54;;;;;;;22.23;20.30;;;18.70;99.90;;;;;;10526809;28;20303;-82
2022/05/10 07:14:57;;;;;;;15.43;14.07;;;18.90;99.90;;;;;;10523727;28;20287;-82
2022/05/10 07:20:02;;;;;;;13.40;12.23;;;19.00;99.90;;;;;;10528140;28;20437;-81
2022/05/10 07:25:25;;;;;;;13.60;12.43;;;19.30;99.90;;;;;;10537438;28;20192;-82
2022/05/10 07:30:29;;;;;;;11.17;10.37;;;19.50;99.90;;;;;;10528458;28;21020;-82
2022/05/10 07:40:54;;;;;;;9.83;9.10;;;20.00;99.90;;;;;;10514232;28;20286;-82
2022/05/10 07:45:56;;;;;;;21.43;10.80;;;20.30;99.90;;;;;;10501634;28;20271;-82
2022/05/10 07:51:04;;;;;;;9.50;8.73;;;20.50;99.90;;;;;;10503040;28;20242;-82
2022/05/10 07:56:06;;;;;;;9.27;8.53;;;20.80;99.90;;;;;;10494076;28;20195;-82
2022/05/10 08:01:09;;;;;;;8.67;7.97;;;21.10;99.90;;;;;;10519600;28;20223;-82
2022/05/10 08:06:12;;;;;;;7.80;7.20;;;21.40;99.90;;;;;;10505694;28;20326;-82
2022/05/10 08:11:14;;;;;;;7.63;7.13;;;21.70;99.90;;;;;;10517848;28;20929;-81
2022/05/10 08:16:17;;;;;;;8.03;7.33;;;22.10;99.40;;;;;;10514051;28;20199;-82
2022/05/10 08:21:22;;;;;;;7.50;6.80;;;22.50;99.90;;;;;;10526227;28;20478;-82
2022/05/10 08:26:24;;;;;;;8.07;7.47;;;23.00;99.50;;;;;;10524076;28;20204;-83
2022/05/10 08:31:26;;;;;;;7.60;7.00;;;23.50;99.30;;;;;;10512292;28;20258;-82
2022/05/10 08:36:30;;;;;;;7.80;7.20;;;23.90;97.50;;;;;;10530327;28;20215;-83
2022/05/10 08:41:42;;;;;;;7.83;7.23;;;24.40;97.80;;;;;;10515864;28;20272;-80
2022/05/10 08:46:46;;;;;;;7.33;6.63;;;24.90;95.80;;;;;;10518218;28;20208;-82
2022/05/10 08:51:53;;;;;;;7.60;7.07;;;25.40;95.10;;;;;;10509268;28;20216;-83
2022/05/10 08:56:59;;;;;;;7.47;6.80;;;25.70;94.80;;;;;;10505956;28;20204;-81
2022/05/10 09:02:06;;;;;;;8.00;7.40;;;25.90;93.30;;;;;;10511944;28;20270;-81
2022/05/10 09:07:19;;;;;;;6.93;6.43;;;26.10;92.20;;;;;;10518371;28;20273;-81
2022/05/10 09:12:23;;;;;;;7.23;6.57;;;26.20;93.10;;;;;;10515642;28;20706;-81
2022/05/10 09:17:29;;;;;;;8.00;7.30;;;26.40;92.50;;;;;;10521702;28;20201;-80
2022/05/10 09:22:55;;;;;;;7.10;6.50;;;26.50;92.40;;;;;;10500061;28;20297;-80
2022/05/10 09:27:58;;;;;;;7.33;6.80;;;26.60;90.30;;;;;;10521036;28;20242;-81
2022/05/10 09:38:45;;;;;;;7.00;6.43;;;26.90;84.90;;;;;;10520339;28;20230;-80
2022/05/10 09:43:47;;;;;;;7.60;7.10;;;27.10;90.20;;;;;;10518178;28;20204;-81
2022/05/10 09:48:49;;;;;;;6.10;5.70;;;27.30;90.60;;;;;;10527970;28;20255;-84
2022/05/10 09:53:54;;;;;;;7.00;6.40;;;27.50;90.50;;;;;;10525053;28;20211;-83
2022/05/10 09:58:58;;;;;;;5.27;4.73;;;27.80;84.40;;;;;;10530185;28;20278;-80
2022/05/10 10:04:27;;;;;;;6.40;6.00;;;28.30;77.90;;;;;;10527334;28;20204;-81
2022/05/10 10:09:33;;;;;;;6.17;5.77;;;28.80;77.10;;;;;;10526396;28;20240;-81
2022/05/10 10:14:40;;;;;;;6.97;6.40;;;29.40;78.00;;;;;;10533494;28;20204;-81
2022/05/10 10:19:52;;;;;;;7.00;6.40;;;29.20;78.80;;;;;;10525337;28;20235;-81
2022/05/10 10:25:05;;;;;;;6.80;6.30;;;28.40;75.10;;;;;;10534244;28;20249;-82
2022/05/10 10:30:25;;;;;;;6.47;5.97;;;27.50;74.80;;;;;;10528770;28;20652;-81
2022/05/10 10:35:35;;;;;;;6.30;5.80;;;26.70;80.30;;;;;;10521246;28;20222;-80
2022/05/10 10:40:47;;;;;;;6.37;5.97;;;26.20;79.80;;;;;;10529651;28;20613;-82
2022/05/10 10:45:53;;;;;;;6.37;5.97;;;25.90;76.10;;;;;;10543402;28;20206;-81
2022/05/10 10:50:57;;;;;;;5.70;5.40;;;25.70;79.20;;;;;;10528096;28;20276;-81
2022/05/10 10:56:21;;;;;;;6.17;5.67;;;25.60;80.70;;;;;;10531811;28;20290;-82
2022/05/10 11:01:39;;;;;;;6.00;5.50;;;25.60;83.80;;;;;;10483973;28;20778;-82
2022/05/10 11:06:48;;;;;;;5.50;5.10;;;25.50;83.70;;;;;;10543439;28;20214;-81
2022/05/10 11:12:03;;;;;;;5.70;5.33;;;25.30;79.90;;;;;;10537081;28;20250;-80
2022/05/10 11:17:15;;;;;;;5.63;5.13;;;25.00;81.30;;;;;;10524670;28;20227;-80
2022/05/10 11:22:36;;;;;;;5.37;5.07;;;24.80;87.70;;;;;;10528844;28;20313;-80
2022/05/10 11:28:08;;;;;;;4.90;4.60;;;24.80;82.90;;;;;;10534401;28;20264;-84
2022/05/10 11:33:22;;;;;;;5.33;4.93;;;24.70;85.60;;;;;;10510341;28;20259;-83
2022/05/10 11:39:06;;;;;;;5.70;5.30;;;24.70;89.00;;;;;;10518479;28;20262;-87
2022/05/10 11:44:30;;;;;;;5.67;5.27;;;24.60;85.60;;;;;;10492140;28;20619;-83
2022/05/10 11:49:51;;;;;;;5.17;4.77;;;24.60;87.40;;;;;;10536103;28;20249;-81
2022/05/10 11:55:01;;;;;;;5.67;5.27;;;24.60;89.20;;;;;;10532029;28;20264;-82
2022/05/10 12:00:51;;;;;;;6.87;6.03;;;24.60;91.50;;;;;;10544807;28;20207;-81
2022/05/10 12:06:34;;;;;;;5.30;4.90;;;24.50;86.50;;;;;;10487880;28;20199;-82
2022/05/10 12:11:38;;;;;;;4.90;4.60;;;24.50;80.30;;;;;;10541111;28;20223;-81
2022/05/10 12:22:44;;;;;;;4.80;4.43;;;24.40;79.50;;;;;;10549135;28;20212;-81
2022/05/10 12:27:58;;;;;;;5.77;5.37;;;24.30;80.70;;;;;;10544928;28;20542;-83
2022/05/10 12:33:31;;;;;;;4.13;3.83;;;24.30;79.50;;;;;;10530624;28;20261;-80
2022/05/10 12:38:45;;;;;;;5.30;4.90;;;24.40;80.20;;;;;;10527824;28;20303;-83
2022/05/10 12:44:29;;;;;;;5.50;5.10;;;24.40;75.20;;;;;;10503978;28;20200;-80
2022/05/10 12:49:49;;;;;;;4.80;4.43;;;24.60;79.80;;;;;;10540516;28;20644;-80
2022/05/10 12:55:03;;;;;;;5.10;4.80;;;24.70;85.50;;;;;;10532685;28;20203;-81
2022/05/10 13:00:11;;;;;;;4.93;4.53;;;24.70;89.00;;;;;;10527541;28;20243;-82
2022/05/10 13:05:20;;;;;;;4.87;4.57;;;24.70;77.70;;;;;;10512441;28;20648;-82
2022/05/10 13:10:24;;;;;;;4.70;4.40;;;24.60;83.50;;;;;;10513586;28;20214;-81
2022/05/10 13:15:26;;;;;;;5.77;5.23;;;24.40;86.30;;;;;;10524737;28;20196;-80
2022/05/10 13:20:32;;;;;;;5.43;5.03;;;24.40;88.80;;;;;;10506445;28;20307;-82
2022/05/10 13:25:39;;;;;;;6.03;5.53;;;24.40;90.00;;;;;;10510790;28;20288;-80
2022/05/10 13:30:44;;;;;;;5.30;4.80;;;24.40;80.40;;;;;;10535238;28;20235;-80
2022/05/10 13:35:50;;;;;;;5.67;5.07;;;24.40;88.30;;;;;;10537387;28;20255;-79
2022/05/10 13:40:57;;;;;;;5.63;5.23;;;24.40;90.60;;;;;;10534924;28;20307;-82
2022/05/10 13:46:03;;;;;;;5.50;5.20;;;24.40;79.00;;;;;;10529244;28;20204;-80
2022/05/10 13:51:10;;;;;;;5.83;5.43;;;24.50;88.50;;;;;;10524150;28;20230;-79
2022/05/10 13:56:25;;;;;;;5.50;5.20;;;24.40;89.60;;;;;;10544917;28;20200;-80
2022/05/10 14:01:35;;;;;;;5.47;5.07;;;24.40;89.30;;;;;;10539111;28;20208;-80
2022/05/10 14:06:39;;;;;;;5.40;5.10;;;24.40;89.90;;;;;;10536641;28;20227;-81
2022/05/10 14:11:44;;;;;;;6.33;5.93;;;24.40;90.90;;;;;;10540733;28;20231;-80
2022/05/10 14:16:47;;;;;;;4.87;4.57;;;24.30;91.40;;;;;;10543480;28;20200;-80
2022/05/10 14:21:50;;;;;;;5.57;5.27;;;24.20;91.50;;;;;;10537610;28;20208;-81
2022/05/10 14:27:07;;;;;;;5.83;5.43;;;24.10;91.60;;;;;;10538075;28;20278;-81
2022/05/10 14:32:11;;;;;;;6.33;5.83;;;24.00;89.90;;;;;;10513589;28;20602;-82
2022/05/10 14:37:24;;;;;;;5.87;5.47;;;24.00;91.10;;;;;;10517703;28;20196;-82
2022/05/10 14:42:36;;;;;;;5.87;5.37;;;23.90;91.90;;;;;;10538238;28;20266;-81
2022/05/10 14:47:38;;;;;;;7.03;5.70;;;23.90;92.10;;;;;;10543059;28;20200;-80
2022/05/10 14:52:40;;;;;;;6.50;6.00;;;23.90;90.70;;;;;;10544600;28;20583;-81
2022/05/10 14:57:49;;;;;;;5.97;5.57;;;24.00;91.60;;;;;;10534397;28;20641;-80
2022/05/10 15:03:05;;;;;;;5.53;5.20;;;24.10;91.80;;;;;;10533648;28;20243;-81
2022/05/10 15:08:08;;;;;;;5.30;4.90;;;24.10;91.90;;;;;;10526809;28;20310;-82
2022/05/10 15:13:12;;;;;;;5.47;5.10;;;24.10;92.60;;;;;;10535664;28;20560;-80
2022/05/10 15:23:36;;;;;;;6.10;5.70;;;24.00;91.70;;;;;;10514151;28;20183;-80
2022/05/10 15:28:41;;;;;;;5.43;5.03;;;24.10;91.30;;;;;;10524653;28;20303;-79
2022/05/10 15:33:43;;;;;;;6.60;6.10;;;24.10;90.00;;;;;;10542895;28;20196;-79
2022/05/10 15:38:46;;;;;;;6.60;6.00;;;24.10;91.00;;;;;;10527035;28;20304;-79
2022/05/10 15:43:50;;;;;;;5.80;5.40;;;24.00;89.80;;;;;;10525486;28;20195;-80
2022/05/10 15:48:53;;;;;;;6.80;5.87;;;24.00;91.30;;;;;;10536177;28;20226;-78
2022/05/10 15:53:55;;;;;;;5.93;5.50;;;24.00;91.80;;;;;;10521060;28;20607;-80
2022/05/10 15:59:00;;;;;;;6.33;5.83;;;24.00;92.70;;;;;;10539842;28;20484;-80
2022/05/10 16:04:02;;;;;;;6.50;6.10;;;23.90;91.50;;;;;;10529246;28;20616;-80
2022/05/10 16:09:04;;;;;;;6.33;5.83;;;23.80;91.60;;;;;;10542304;28;20618;-79
2022/05/10 16:14:09;;;;;;;6.10;5.50;;;23.70;92.40;;;;;;10538419;28;20200;-80
2022/05/10 16:19:14;;;;;;;6.30;5.70;;;23.70;92.10;;;;;;10533476;28;20216;-82
2022/05/10 16:24:16;;;;;;;6.83;6.40;;;23.60;92.80;;;;;;10551371;28;20195;-81
2022/05/10 16:34:40;;;;;;;6.77;6.20;;;23.40;93.60;;;;;;10550419;28;20203;-81
2022/05/10 16:39:45;;;;;;;6.43;5.67;;;23.40;93.80;;;;;;10530036;28;20250;-80
2022/05/10 16:44:49;;;;;;;6.90;6.30;;;23.30;94.10;;;;;;10528472;28;20583;-81
2022/05/10 16:49:52;;;;;;;6.73;6.30;;;23.20;92.80;;;;;;10530371;28;20334;-81
2022/05/10 16:54:54;;;;;;;7.87;7.20;;;23.20;93.70;;;;;;10553659;28;20297;-81
2022/05/10 17:00:01;;;;;;;7.43;6.93;;;23.20;93.20;;;;;;10531420;28;20228;-80
2022/05/10 17:05:07;;;;;;;8.90;8.10;;;23.10;93.50;;;;;;10546698;28;20196;-82
2022/05/10 17:10:15;;;;;;;8.17;7.47;;;23.00;94.40;;;;;;10529508;28;20224;-82
2022/05/10 17:15:19;;;;;;;8.73;8.07;;;22.90;95.20;;;;;;10550895;28;20195;-81
2022/05/10 17:20:22;;;;;;;7.30;6.70;;;22.80;95.10;;;;;;10548851;28;20223;-81
2022/05/10 17:25:27;;;;;;;7.53;7.03;;;22.70;95.00;;;;;;10555021;28;20204;-81
2022/05/10 17:30:30;;;;;;;7.03;6.57;;;22.60;95.90;;;;;;10522401;28;20218;-81
2022/05/10 17:35:33;;;;;;;6.47;5.80;;;22.60;95.80;;;;;;10508032;28;20257;-82
2022/05/10 17:40:36;;;;;;;7.43;6.80;;;22.50;95.50;;;;;;10536861;22;20239;-85
2022/05/10 17:45:42;;;;;;;7.70;7.20;;;22.40;96.30;;;;;;10484145;28;20761;-84
2022/05/10 17:50:44;;;;;;;7.57;7.03;;;22.40;96.90;;;;;;10472157;28;20232;-85
2022/05/10 17:55:47;;;;;;;11.17;10.23;;;22.30;97.20;;;;;;10466216;28;20211;-85
2022/05/10 18:00:51;;;;;;;11.17;10.23;;;22.20;97.50;;;;;;10485647;28;20978;-86
2022/05/10 18:05:53;;;;;;;8.50;7.80;;;22.10;97.70;;;;;;10485526;28;20234;-87
2022/05/10 18:10:58;;;;;;;7.33;6.83;;;22.00;97.90;;;;;;10484542;28;20232;-85
2022/05/10 18:16:07;;;;;;;7.30;6.70;;;21.90;96.40;;;;;;10462352;28;20200;-86
2022/05/10 18:21:11;;;;;;;7.60;7.00;;;22.00;96.10;;;;;;10476014;28;20220;-86
2022/05/10 18:26:14;;;;;;;8.40;7.60;;;22.00;95.70;;;;;;10483724;28;20602;-86
2022/05/10 18:31:18;;;;;;;7.90;7.20;;;22.00;95.40;;;;;;10456415;28;20267;-88
2022/05/10 18:36:21;;;;;;;8.60;7.90;;;22.00;95.20;;;;;;10478449;28;20294;-86
2022/05/10 18:41:23;;;;;;;7.83;7.13;;;22.00;95.30;;;;;;10443101;28;20228;-86
2022/05/10 18:46:26;;;;;;;7.57;7.07;;;21.90;95.40;;;;;;10456735;28;20196;-86
2022/05/10 18:51:30;;;;;;;13.30;12.30;;;21.80;95.80;;;;;;10456415;28;20231;-87
2022/05/10 18:56:32;;;;;;;8.97;8.17;;;21.80;95.60;;;;;;10458700;28;20209;-86
2022/05/10 19:01:35;;;;;;;9.20;8.40;;;21.70;95.90;;;;;;10453469;28;20309;-87
2022/05/10 19:06:38;;;;;;;7.27;6.77;;;21.50;96.20;;;;;;10485501;28;20200;-88
2022/05/10 19:11:40;;;;;;;6.50;6.00;;;21.50;96.20;;;;;;10459432;28;20232;-87
2022/05/10 19:16:43;;;;;;;7.70;7.10;;;21.40;95.90;;;;;;10478130;28;20246;-86
2022/05/10 19:21:46;;;;;;;7.53;6.93;;;21.20;95.90;;;;;;10457869;28;20668;-85
2022/05/10 19:26:49;;;;;;;7.33;6.73;;;21.10;95.40;;;;;;10483655;28;20204;-87
2022/05/10 19:31:52;;;;;;;7.10;6.47;;;21.00;95.50;;;;;;10455279;28;20216;-85
2022/05/10 19:36:54;;;;;;;7.20;6.70;;;20.90;95.80;;;;;;10473976;28;20231;-85
2022/05/10 19:41:56;;;;;;;8.63;7.87;;;20.80;96.30;;;;;;10477532;28;20283;-84
2022/05/10 19:47:02;;;;;;;11.63;7.27;;;20.70;96.10;;;;;;10463035;28;20246;-84
2022/05/10 19:52:05;;;;;;;7.80;7.10;;;20.70;96.20;;;;;;10452865;28;20229;-85
2022/05/10 19:57:07;;;;;;;7.40;6.77;;;20.70;96.50;;;;;;10473478;28;20224;-84
2022/05/10 20:07:31;;;;;;;7.87;7.30;;;20.60;96.70;;;;;;10455648;28;20196;-85
2022/05/10 20:12:34;;;;;;;8.90;8.20;;;20.60;96.90;;;;;;10468515;28;20307;-84
2022/05/10 20:17:45;;;;;;;8.63;7.70;;;20.60;97.00;;;;;;10478909;28;20205;-83
2022/05/10 20:22:48;;;;;;;7.43;6.93;;;20.60;96.80;;;;;;10487694;28;20255;-84
2022/05/10 20:27:50;;;;;;;7.60;6.87;;;20.60;96.80;;;;;;10468339;28;21637;-84
2022/05/10 20:32:55;;;;;;;7.40;6.90;;;20.60;96.70;;;;;;10471438;28;20246;-85
2022/05/10 20:37:58;;;;;;;11.43;7.37;;;20.60;96.90;;;;;;10464827;28;20201;-85
2022/05/10 20:43:01;;;;;;;8.03;7.43;;;20.50;97.20;;;;;;10467432;28;20721;-86
2022/05/10 20:48:10;;;;;;;7.40;6.80;;;20.50;97.40;;;;;;10466063;28;20205;-88
2022/05/10 20:53:12;;;;;;;7.80;7.20;;;20.50;97.10;;;;;;10492789;28;20251;-87
2022/05/10 20:58:15;;;;;;;7.50;6.90;;;20.50;97.60;;;;;;10475448;28;20604;-87
2022/05/10 21:03:20;;;;;;;7.10;6.50;;;20.50;98.40;;;;;;10461677;28;20600;-87
2022/05/10 21:08:28;;;;;;;7.60;7.00;;;20.50;99.10;;;;;;10465279;28;20208;-87
2022/05/10 21:13:32;;;;;;;8.03;7.47;;;20.50;99.40;;;;;;10490754;28;20229;-87
2022/05/10 21:18:54;;;;;;;8.50;7.77;;;20.50;99.30;;;;;;10486214;28;20293;-87
2022/05/10 21:24:15;;;;;;;8.00;7.40;;;20.40;99.50;;;;;;10494724;28;20197;-87
2022/05/10 21:35:02;;;;;;;8.17;7.57;;;20.30;99.00;;;;;;10454043;28;20304;-86
2022/05/10 21:40:12;;;;;;;9.00;8.20;;;20.20;98.90;;;;;;10463899;28;20306;-84
2022/05/10 21:45:15;;;;;;;8.93;8.23;;;20.10;99.00;;;;;;10466193;28;20213;-84
2022/05/10 21:50:21;;;;;;;9.17;8.47;;;20.10;98.90;;;;;;10483980;28;20691;-84
2022/05/10 21:55:23;;;;;;;8.87;8.27;;;20.00;98.90;;;;;;10505808;28;20584;-84
2022/05/10 22:00:32;;;;;;;9.00;8.30;;;19.90;99.10;;;;;;10489424;28;20312;-85
2022/05/10 22:05:37;;;;;;;8.73;8.13;;;19.90;99.00;;;;;;10468869;28;20310;-84
2022/05/10 22:10:39;;;;;;;9.33;8.63;;;19.80;99.60;;;;;;10484918;28;20231;-84
2022/05/10 22:15:42;;;;;;;9.60;8.80;;;19.80;99.90;;;;;;10463599;28;20585;-84
2022/05/10 22:20:45;;;;;;;10.20;9.50;;;19.70;99.90;;;;;;10463138;28;20243;-84
2022/05/10 22:25:48;;;;;;;11.33;10.40;;;19.60;99.90;;;;;;10467928;28;20282;-84
2022/05/10 22:30:52;;;;;;;10.73;9.83;;;19.60;99.90;;;;;;10484104;28;20228;-85
2022/05/10 22:35:56;;;;;;;10.63;9.83;;;19.50;99.90;;;;;;10476700;28;20706;-85
2022/05/10 22:40:58;;;;;;;11.60;10.50;;;19.40;99.90;;;;;;10467844;28;20225;-84
2022/05/10 22:46:08;;;;;;;10.60;9.90;;;19.40;99.90;;;;;;10454819;28;20220;-85
2022/05/10 22:51:11;;;;;;;10.90;10.10;;;19.30;99.90;;;;;;10472057;28;20225;-84
2022/05/10 22:56:13;;;;;;;12.87;10.73;;;19.20;99.90;;;;;;10463932;28;20606;-84
2022/05/10 23:01:16;;;;;;;11.57;10.60;;;19.10;99.90;;;;;;10472421;28;20272;-84
2022/05/10 23:06:19;;;;;;;10.90;9.80;;;19.00;99.90;;;;;;10451835;28;20291;-84
2022/05/10 23:11:21;;;;;;;11.33;10.43;;;18.90;99.90;;;;;;10462528;28;20259;-84
2022/05/10 23:16:24;;;;;;;10.53;9.73;;;18.90;99.90;;;;;;10455835;28;20209;-85
2022/05/10 23:21:27;;;;;;;11.00;10.10;;;18.80;99.90;;;;;;10491088;28;20269;-84
2022/05/10 23:26:29;;;;;;;10.80;9.87;;;18.70;99.90;;;;;;10490506;28;20641;-85
2022/05/10 23:31:31;;;;;;;9.47;8.77;;;18.70;99.90;;;;;;10488702;28;20224;-84
2022/05/10 23:36:35;;;;;;;10.03;9.23;;;18.60;99.90;;;;;;10493208;28;20660;-85
2022/05/10 23:41:37;;;;;;;11.27;10.27;;;18.60;99.90;;;;;;10495003;28;20224;-85
2022/05/10 23:46:41;;;;;;;9.80;8.90;;;18.60;99.90;;;;;;10491447;28;20204;-85
2022/05/10 23:51:47;;;;;;;10.20;9.50;;;18.50;99.90;;;;;;10471082;28;20225;-86
2022/05/10 23:56:49;;;;;;;8.67;7.90;;;18.50;99.90;;;;;;10500244;28;20628;-85
